Time;durP1;ratioP1;P1;durP2;ratioP2;P2;SDS_P1;SDS_P2;PMS_P1;PMS_P2;Temp;Humidity;BMP_temperature;BMP_pressure;BME280_temperature;BME280_humidity;BME280_pressure;Samples;Min_cycle;Max_cycle;Signal;HPM_P1;HPM_P2
2020/12/25 00:04:59;;;;;;;0.30;0.30;;;3.20;97.50;;;;;;10410119;28;20049;-66
2020/12/25 00:10:01;;;;;;;0.30;0.30;;;3.30;97.60;;;;;;10406681;28;20081;-66
2020/12/25 00:15:02;;;;;;;0.30;0.30;;;3.10;97.20;;;;;;10408626;28;20046;-67
2020/12/25 00:20:05;;;;;;;9.20;3.88;;;3.00;97.10;;;;;;10403653;28;20053;-66
2020/12/25 00:25:06;;;;;;;0.20;0.20;;;2.80;97.10;;;;;;10404193;28;20056;-67
2020/12/25 00:30:08;;;;;;;0.30;0.30;;;3.00;97.80;;;;;;10407112;28;20041;-66
2020/12/25 00:35:10;;;;;;;0.50;0.50;;;3.10;97.90;;;;;;10409212;28;20050;-66
2020/12/25 00:40:11;;;;;;;0.30;0.30;;;3.20;97.90;;;;;;10408018;28;20470;-67
2020/12/25 00:45:12;;;;;;;0.40;0.40;;;2.90;97.30;;;;;;10409931;28;20136;-66
2020/12/25 00:50:14;;;;;;;0.40;0.40;;;2.60;96.60;;;;;;10407708;28;20156;-67
2020/12/25 00:55:15;;;;;;;0.37;0.37;;;2.30;96.30;;;;;;10410964;28;20045;-67
2020/12/25 01:00:17;;;;;;;0.30;0.30;;;;;;;;;;10409228;28;20128;-67
2020/12/25 01:05:19;;;;;;;0.20;0.20;;;2.00;96.20;;;;;;10410001;28;20111;-67
2020/12/25 01:10:20;;;;;;;0.30;0.30;;;2.10;96.90;;;;;;10408712;28;20118;-67
2020/12/25 01:15:22;;;;;;;0.40;0.40;;;2.30;97.40;;;;;;10409524;28;20057;-67
2020/12/25 01:20:24;;;;;;;0.32;0.32;;;2.50;97.80;;;;;;10408850;28;20144;-66
2020/12/25 01:25:25;;;;;;;0.30;0.30;;;2.90;98.40;;;;;;10408374;28;20478;-66
2020/12/25 01:30:26;;;;;;;0.25;0.25;;;3.30;98.90;;;;;;10408939;28;20496;-65
2020/12/25 01:35:28;;;;;;;0.30;0.30;;;3.70;99.20;;;;;;10408934;28;20053;-65
2020/12/25 01:40:30;;;;;;;0.30;0.30;;;4.00;99.30;;;;;;10404862;28;20128;-65
2020/12/25 01:45:31;;;;;;;0.25;0.25;;;3.90;99.10;;;;;;10408490;28;20076;-65
2020/12/25 01:50:35;;;;;;;0.30;0.30;;;3.90;99.10;;;;;;10408197;28;20136;-66
2020/12/25 01:55:38;;;;;;;0.25;0.25;;;3.80;99.10;;;;;;10401129;28;20056;-66
2020/12/25 02:00:40;;;;;;;0.30;0.30;;;3.50;98.70;;;;;;10406387;28;20156;-66
2020/12/25 02:05:43;;;;;;;0.43;0.43;;;2.90;97.70;;;;;;10393678;28;20045;-65
2020/12/25 02:10:45;;;;;;;0.30;0.30;;;2.40;96.80;;;;;;10402639;28;20057;-66
2020/12/25 02:15:46;;;;;;;0.30;0.30;;;2.00;96.10;;;;;;10401969;28;20581;-66
2020/12/25 02:20:48;;;;;;;0.30;0.30;;;1.60;95.60;;;;;;10401279;28;20091;-65
2020/12/25 02:25:50;;;;;;;0.35;0.35;;;1.40;95.60;;;;;;10402819;28;20098;-66
2020/12/25 02:30:52;;;;;;;0.30;0.30;;;1.20;95.70;;;;;;10404454;28;20124;-66
2020/12/25 02:35:53;;;;;;;0.20;0.20;;;1.30;96.40;;;;;;10405381;28;20144;-66
2020/12/25 02:40:55;;;;;;;0.37;0.37;;;1.50;97.20;;;;;;10403741;28;20045;-66
2020/12/25 02:45:56;;;;;;;0.40;0.40;;;1.80;97.60;;;;;;10403750;28;20064;-65
2020/12/25 02:50:58;;;;;;;0.30;0.30;;;1.90;97.60;;;;;;10406402;28;20052;-66
2020/12/25 02:56:00;;;;;;;0.30;0.30;;;2.20;98.20;;;;;;10401337;28;20601;-65
2020/12/25 03:01:01;;;;;;;0.20;0.20;;;2.70;98.90;;;;;;10404951;28;20052;-66
2020/12/25 03:06:02;;;;;;;0.30;0.30;;;3.20;99.30;;;;;;10403487;28;20140;-65
2020/12/25 03:11:05;;;;;;;0.30;0.30;;;3.40;99.30;;;;;;10404737;28;20049;-65
2020/12/25 03:16:06;;;;;;;0.40;0.40;;;3.30;99.10;;;;;;10404819;28;20063;-66
2020/12/25 03:21:07;;;;;;;0.30;0.30;;;3.00;98.50;;;;;;10406082;28;20128;-66
2020/12/25 03:26:09;;;;;;;0.30;0.30;;;2.60;98.00;;;;;;10401704;28;20041;-66
2020/12/25 03:31:11;;;;;;;0.30;0.30;;;2.60;98.20;;;;;;10405903;28;20061;-66
2020/12/25 03:36:12;;;;;;;0.30;0.30;;;2.80;98.70;;;;;;10405087;28;20187;-66
2020/12/25 03:41:14;;;;;;;0.40;0.40;;;3.30;99.20;;;;;;10405268;28;20041;-66
2020/12/25 03:46:15;;;;;;;0.30;0.30;;;3.50;99.20;;;;;;10405100;28;20397;-65
2020/12/25 03:51:17;;;;;;;0.30;0.30;;;3.20;98.90;;;;;;10403314;28;20441;-66
2020/12/25 03:56:19;;;;;;;0.20;0.20;;;2.90;98.30;;;;;;10402673;28;20087;-67
2020/12/25 04:01:20;;;;;;;0.20;0.20;;;2.80;98.30;;;;;;10402267;28;20050;-66
2020/12/25 04:06:21;;;;;;;0.38;0.38;;;2.70;98.30;;;;;;10399785;28;20141;-66
2020/12/25 04:11:24;;;;;;;0.30;0.30;;;2.80;98.40;;;;;;10399759;28;20037;-66
2020/12/25 04:16:25;;;;;;;0.30;0.30;;;3.00;98.80;;;;;;10402412;28;20148;-66
2020/12/25 04:21:26;;;;;;;0.30;0.30;;;3.40;99.80;;;;;;10411631;28;20060;-66
2020/12/25 04:26:28;;;;;;;0.30;0.30;;;3.20;98.80;;;;;;10409686;28;20477;-66
2020/12/25 04:31:30;;;;;;;0.40;0.40;;;3.10;98.70;;;;;;10407691;28;20060;-66
2020/12/25 04:36:31;;;;;;;0.40;0.40;;;3.30;99.10;;;;;;10411642;28;20119;-66
2020/12/25 04:41:34;;;;;;;0.30;0.30;;;3.20;98.80;;;;;;10410791;28;20053;-66
2020/12/25 04:46:35;;;;;;;0.32;0.32;;;2.80;98.00;;;;;;10410464;28;20128;-66
2020/12/25 04:51:37;;;;;;;0.30;0.30;;;2.60;98.50;;;;;;10410305;28;20042;-66
2020/12/25 04:56:39;;;;;;;0.30;0.30;;;2.40;97.80;;;;;;10409019;28;20420;-64
2020/12/25 05:01:41;;;;;;;0.28;0.28;;;2.40;97.70;;;;;;10409734;28;20048;-67
2020/12/25 05:06:42;;;;;;;0.70;0.70;;;2.40;98.00;;;;;;10405110;28;20120;-66
2020/12/25 05:11:50;;;;;;;0.30;0.30;;;2.70;98.50;;;;;;10410246;28;20495;-66
2020/12/25 05:16:54;;;;;;;0.20;0.20;;;3.30;99.20;;;;;;10407055;28;20053;-66
2020/12/25 05:21:57;;;;;;;0.30;0.30;;;3.70;99.30;;;;;;10408265;28;20124;-65
2020/12/25 05:26:59;;;;;;;0.30;0.30;;;3.50;99.00;;;;;;10406355;28;20144;-66
2020/12/25 05:32:00;;;;;;;0.40;0.40;;;3.40;98.80;;;;;;10406235;28;20048;-65
2020/12/25 05:37:04;;;;;;;0.40;0.40;;;3.30;98.80;;;;;;10405280;28;20041;-66
2020/12/25 05:42:07;;;;;;;0.20;0.20;;;3.30;98.90;;;;;;10406352;28;20049;-66
2020/12/25 05:47:09;;;;;;;0.22;0.22;;;3.00;98.60;;;;;;10406170;28;20483;-66
2020/12/25 05:52:12;;;;;;;0.30;0.30;;;2.60;98.10;;;;;;10408169;28;20077;-66
2020/12/25 05:57:14;;;;;;;;;;;2.60;98.40;;;;;;10408635;28;20053;-67
2020/12/25 06:02:16;;;;;;;0.30;0.30;;;2.90;98.90;;;;;;10406060;28;20412;-67
2020/12/25 06:07:25;;;;;;;0.30;0.30;;;3.10;99.10;;;;;;10406791;28;20045;-66
2020/12/25 06:12:38;;;;;;;0.30;0.30;;;2.70;98.50;;;;;;10407265;28;20549;-66
2020/12/25 06:17:51;;;;;;;0.30;0.30;;;2.30;97.80;;;;;;10405958;28;20424;-66
2020/12/25 06:22:53;;;;;;;0.30;0.30;;;2.10;97.60;;;;;;10403269;28;20073;-66
2020/12/25 06:27:59;;;;;;;0.38;0.38;;;1.90;97.40;;;;;;10407381;28;20099;-66
2020/12/25 06:33:01;;;;;;;0.30;0.30;;;1.60;96.70;;;;;;10402777;28;20041;-65
2020/12/25 06:38:09;;;;;;;0.30;0.30;;;1.50;97.30;;;;;;10404723;28;20063;-66
2020/12/25 06:43:16;;;;;;;0.30;0.30;;;1.80;97.70;;;;;;10402946;28;20526;-67
2020/12/25 06:48:18;;;;;;;0.27;0.27;;;2.20;98.50;;;;;;10405297;28;20045;-67
2020/12/25 06:53:34;;;;;;;0.30;0.30;;;2.50;98.70;;;;;;10405730;28;20085;-67
2020/12/25 06:58:39;;;;;;;0.38;0.38;;;2.70;98.90;;;;;;10404810;28;20148;-66
2020/12/25 07:03:40;;;;;;;0.40;0.40;;;2.80;98.90;;;;;;10402277;28;20072;-66
2020/12/25 07:08:53;;;;;;;0.30;0.30;;;2.60;98.50;;;;;;10402124;28;20129;-66
2020/12/25 07:13:55;;;;;;;0.30;0.30;;;2.10;97.50;;;;;;10404230;28;20049;-67
2020/12/25 07:18:57;;;;;;;0.30;0.30;;;1.90;97.20;;;;;;10405662;28;20058;-66
2020/12/25 07:23:59;;;;;;;0.30;0.30;;;1.70;99.90;;;;;;10395791;28;20142;-67
2020/12/25 07:29:01;;;;;;;0.38;0.38;;;;;;;;;;10397048;28;20187;-66
2020/12/25 07:34:03;;;;;;;2.70;2.55;;;;;;;;;;10400893;28;20140;-66
2020/12/25 07:39:05;;;;;;;0.30;0.30;;;3.10;99.90;;;;;;10401228;28;20126;-66
2020/12/25 07:44:07;;;;;;;0.20;0.20;;;2.90;99.90;;;;;;10397128;28;20069;-66
2020/12/25 07:49:09;;;;;;;0.30;0.30;;;3.00;99.90;;;;;;10401844;28;20137;-67
2020/12/25 07:54:10;;;;;;;0.30;0.30;;;3.20;99.90;;;;;;10411739;28;20053;-66
2020/12/25 07:59:12;;;;;;;0.30;0.30;;;;;;;;;;10408679;28;20038;-66
2020/12/25 08:04:14;;;;;;;0.30;0.30;;;3.70;98.80;;;;;;10400342;28;20063;-67
2020/12/25 08:09:17;;;;;;;1.60;1.50;;;3.60;98.20;;;;;;10405933;28;20142;-67
2020/12/25 08:14:22;;;;;;;0.30;0.30;;;3.50;97.50;;;;;;10410240;28;20041;-66
2020/12/25 08:19:23;;;;;;;0.28;0.28;;;3.50;97.10;;;;;;10405489;28;20065;-64
2020/12/25 08:24:24;;;;;;;0.75;0.75;;;3.50;96.60;;;;;;10408602;28;20144;-64
2020/12/25 08:29:27;;;;;;;0.30;0.30;;;3.40;96.10;;;;;;10408046;28;20057;-64
2020/12/25 08:34:28;;;;;;;0.30;0.30;;;3.60;96.20;;;;;;10409400;28;20139;-65
2020/12/25 08:39:30;;;;;;;0.30;0.30;;;4.10;96.10;;;;;;10407657;28;20510;-65
2020/12/25 08:44:32;;;;;;;0.20;0.20;;;4.50;95.80;;;;;;10410035;28;20057;-65
2020/12/25 08:49:34;;;;;;;1.15;1.05;;;;;;;;;;10406152;28;20045;-63
2020/12/25 08:54:35;;;;;;;0.22;0.22;;;4.50;94.40;;;;;;10398318;28;20120;-65
2020/12/25 08:59:37;;;;;;;0.22;0.22;;;4.30;94.60;;;;;;10407566;28;20041;-65
2020/12/25 09:04:39;;;;;;;1.20;1.20;;;4.30;94.60;;;;;;10405788;28;20841;-65
2020/12/25 09:09:40;;;;;;;0.20;0.20;;;4.30;94.40;;;;;;10408105;28;20077;-65
2020/12/25 09:14:42;;;;;;;0.35;0.35;;;4.50;94.10;;;;;;10401744;28;20540;-68
2020/12/25 09:19:43;;;;;;;0.30;0.30;;;4.70;93.90;;;;;;10394055;28;20416;-67
2020/12/25 09:24:45;;;;;;;0.57;0.50;;;5.10;93.20;;;;;;10401919;28;20049;-67
2020/12/25 09:29:47;;;;;;;0.20;0.20;;;5.00;92.90;;;;;;10398927;28;20186;-68
2020/12/25 09:34:48;;;;;;;0.25;0.25;;;4.80;92.70;;;;;;10401969;28;20572;-68
2020/12/25 09:39:49;;;;;;;0.32;0.32;;;4.90;93.00;;;;;;10403419;28;20068;-69
2020/12/25 09:44:52;;;;;;;0.30;0.30;;;;;;;;;;10400888;28;20140;-68
2020/12/25 09:49:53;;;;;;;0.30;0.30;;;7.60;92.80;;;;;;10401173;28;20076;-68
2020/12/25 09:54:54;;;;;;;0.30;0.30;;;6.60;91.60;;;;;;10401836;28;20219;-68
2020/12/25 09:59:56;;;;;;;0.45;0.45;;;5.80;92.10;;;;;;10400703;28;20132;-69
2020/12/25 10:04:58;;;;;;;0.20;0.20;;;5.10;91.40;;;;;;10399428;28;20053;-68
2020/12/25 10:09:59;;;;;;;0.22;0.22;;;4.60;91.60;;;;;;10399865;28;20045;-68
2020/12/25 10:15:02;;;;;;;0.20;0.20;;;4.60;92.00;;;;;;10397884;28;20045;-67
2020/12/25 10:20:03;;;;;;;0.30;0.30;;;6.60;91.10;;;;;;10401646;28;20656;-69
2020/12/25 10:25:05;;;;;;;0.20;0.20;;;;;;;;;;10404973;28;20152;-68
2020/12/25 10:30:07;;;;;;;0.20;0.20;;;10.60;76.00;;;;;;10406207;28;20149;-67
2020/12/25 10:35:09;;;;;;;0.13;0.13;;;;;;;;;;10396691;28;20071;-68
2020/12/25 10:40:11;;;;;;;0.15;0.15;;;;;;;;;;10400074;28;20581;-68
2020/12/25 10:45:13;;;;;;;0.10;0.10;;;16.80;58.90;;;;;;10400573;28;20124;-67
2020/12/25 10:50:14;;;;;;;1.23;0.50;;;16.90;59.60;;;;;;10395987;28;20044;-65
2020/12/25 10:55:16;;;;;;;0.20;0.20;;;;;;;;;;10395061;28;20053;-65
2020/12/25 11:00:18;;;;;;;0.10;0.10;;;;;;;;;;10399409;28;20554;-65
2020/12/25 11:05:20;;;;;;;0.15;0.15;;;14.50;63.50;;;;;;10398937;28;20073;-64
2020/12/25 11:10:21;;;;;;;0.17;0.17;;;;;;;;;;10395123;28;20125;-64
2020/12/25 11:15:23;;;;;;;0.10;0.10;;;16.90;60.20;;;;;;10398731;28;20119;-62
2020/12/25 11:20:25;;;;;;;0.10;0.10;;;18.30;58.80;;;;;;10396028;28;20107;-65
2020/12/25 11:25:26;;;;;;;0.10;0.10;;;18.60;58.80;;;;;;10395253;28;20462;-65
2020/12/25 11:30:28;;;;;;;0.10;0.10;;;15.60;59.70;;;;;;10405520;28;20057;-66
2020/12/25 11:35:29;;;;;;;0.10;0.10;;;16.80;66.30;;;;;;10408017;28;20049;-65
2020/12/25 11:40:30;;;;;;;0.10;0.10;;;15.20;63.40;;;;;;10409005;28;20092;-66
2020/12/25 11:45:34;;;;;;;53.17;1.45;;;11.40;72.90;;;;;;10404640;28;20073;-64
2020/12/25 11:50:35;;;;;;;0.10;0.10;;;9.70;77.10;;;;;;10398148;28;20123;-65
2020/12/25 11:55:37;;;;;;;0.40;0.40;;;9.80;76.80;;;;;;10401175;28;20079;-66
2020/12/25 12:00:39;;;;;;;0.10;0.10;;;10.50;77.40;;;;;;10404990;28;20065;-65
2020/12/25 12:05:41;;;;;;;0.13;0.13;;;10.20;75.70;;;;;;10404117;28;20117;-65
2020/12/25 12:10:42;;;;;;;0.20;0.20;;;9.20;76.80;;;;;;10405099;28;20061;-65
2020/12/25 12:15:44;;;;;;;8.40;1.95;;;9.30;77.00;;;;;;10398104;28;20480;-65
2020/12/25 12:20:46;;;;;;;0.30;0.30;;;11.30;77.50;;;;;;10406147;28;20084;-65
2020/12/25 12:25:47;;;;;;;0.10;0.10;;;15.20;62.40;;;;;;10408912;28;20393;-66
2020/12/25 12:30:49;;;;;;;0.10;0.10;;;13.60;64.60;;;;;;10404282;28;20061;-65
2020/12/25 12:35:51;;;;;;;0.20;0.20;;;10.10;73.40;;;;;;10406298;28;20178;-66
2020/12/25 12:40:52;;;;;;;0.28;0.28;;;8.10;79.80;;;;;;10404510;28;20081;-65
2020/12/25 12:45:54;;;;;;;0.20;0.20;;;7.50;84.20;;;;;;10408171;28;20045;-65
2020/12/25 12:50:55;;;;;;;0.17;0.17;;;7.50;87.20;;;;;;10401476;28;20132;-65
2020/12/25 12:55:56;;;;;;;0.20;0.20;;;9.10;83.20;;;;;;10406328;28;20128;-66
2020/12/25 13:00:59;;;;;;;0.20;0.20;;;11.50;72.70;;;;;;10407006;28;20136;-64
2020/12/25 13:06:00;;;;;;;0.20;0.20;;;12.20;68.50;;;;;;10404369;28;20148;-65
2020/12/25 13:11:01;;;;;;;0.10;0.10;;;12.40;67.30;;;;;;10408031;28;20148;-65
2020/12/25 13:16:03;;;;;;;0.20;0.20;;;12.30;67.40;;;;;;10407113;28;20088;-65
2020/12/25 13:21:04;;;;;;;0.20;0.20;;;12.10;66.60;;;;;;10403131;28;20078;-65
2020/12/25 13:26:07;;;;;;;0.17;0.17;;;12.20;65.30;;;;;;10374522;28;20085;-65
2020/12/25 13:31:15;;;;;;;0.20;0.20;;;12.10;65.10;;;;;;10404892;28;20079;-65
2020/12/25 13:36:19;;;;;;;0.10;0.10;;;12.30;68.70;;;;;;10404772;28;20041;-66
2020/12/25 13:41:22;;;;;;;0.10;0.10;;;13.90;66.10;;;;;;10407657;28;20059;-69
2020/12/25 13:46:24;;;;;;;0.10;0.10;;;11.70;64.00;;;;;;10408585;28;20103;-69
2020/12/25 13:51:26;;;;;;;0.23;0.23;;;;;;;;;;10401271;28;20140;-70
2020/12/25 13:56:27;;;;;;;0.15;0.15;;;10.70;71.30;;;;;;10405899;28;20045;-69
2020/12/25 14:01:29;;;;;;;0.20;0.20;;;10.20;74.80;;;;;;10404346;28;20045;-71
2020/12/25 14:06:32;;;;;;;0.20;0.20;;;9.60;75.80;;;;;;10403467;28;20050;-70
2020/12/25 14:11:34;;;;;;;0.60;0.60;;;8.40;78.10;;;;;;10405337;28;20099;-72
2020/12/25 14:16:36;;;;;;;0.20;0.20;;;8.30;77.90;;;;;;10405173;28;20515;-69
2020/12/25 14:21:38;;;;;;;0.17;0.17;;;8.40;77.40;;;;;;10404557;28;20537;-68
2020/12/25 14:26:39;;;;;;;0.25;0.25;;;7.60;80.40;;;;;;10399884;28;21531;-69
2020/12/25 14:31:41;;;;;;;0.20;0.20;;;7.10;84.30;;;;;;10399802;28;20056;-69
2020/12/25 14:36:42;;;;;;;0.20;0.20;;;7.20;85.50;;;;;;10400909;28;20491;-68
2020/12/25 14:41:44;;;;;;;0.20;0.20;;;6.60;84.40;;;;;;10400737;28;20045;-69
2020/12/25 14:46:49;;;;;;;0.20;0.20;;;6.10;88.10;;;;;;10400185;28;20575;-68
2020/12/25 14:51:51;;;;;;;0.20;0.20;;;6.10;90.00;;;;;;10401923;28;20440;-68
2020/12/25 14:56:54;;;;;;;0.22;0.22;;;6.10;90.70;;;;;;10398833;28;20481;-69
2020/12/25 15:01:57;;;;;;;0.25;0.25;;;5.80;91.90;;;;;;10396811;28;20060;-67
2020/12/25 15:06:59;;;;;;;0.30;0.30;;;5.50;92.50;;;;;;10399319;28;20045;-67
2020/12/25 15:12:01;;;;;;;0.28;0.28;;;5.40;93.00;;;;;;10401927;28;20057;-67
2020/12/25 15:17:03;;;;;;;0.47;0.47;;;5.30;93.30;;;;;;10399817;28;20054;-68
2020/12/25 15:22:05;;;;;;;0.30;0.30;;;5.10;93.10;;;;;;10396896;28;20088;-68
2020/12/25 15:27:06;;;;;;;0.25;0.25;;;5.10;94.30;;;;;;10399268;28;20091;-69
2020/12/25 15:32:08;;;;;;;0.60;0.60;;;5.10;94.50;;;;;;10399777;28;20055;-68
2020/12/25 15:37:10;;;;;;;0.60;0.60;;;5.00;94.50;;;;;;10397774;28;20490;-69
2020/12/25 15:42:11;;;;;;;0.20;0.20;;;4.90;94.90;;;;;;10401260;28;20054;-69
2020/12/25 15:47:13;;;;;;;0.40;0.40;;;4.80;95.10;;;;;;10401444;28;20053;-69
2020/12/25 15:52:15;;;;;;;0.20;0.20;;;4.80;95.10;;;;;;10397935;28;20056;-69
2020/12/25 15:57:16;;;;;;;0.45;0.45;;;4.70;95.10;;;;;;10397492;28;20052;-70
2020/12/25 16:02:18;;;;;;;0.30;0.30;;;4.60;94.70;;;;;;10400979;28;20054;-69
2020/12/25 16:07:20;;;;;;;0.30;0.30;;;4.50;96.70;;;;;;10393962;28;20058;-69
2020/12/25 16:12:21;;;;;;;0.20;0.20;;;;;;;;;;10397753;28;20531;-68
2020/12/25 16:17:24;;;;;;;0.30;0.30;;;4.40;99.90;;;;;;10404199;28;20491;-69
2020/12/25 16:22:25;;;;;;;0.73;0.73;;;;;;;;;;10406065;28;20055;-68
2020/12/25 16:27:27;;;;;;;0.30;0.30;;;;;;;;;;10405460;28;20115;-68
2020/12/25 16:32:29;;;;;;;1.10;0.95;;;;;;;;;;10403866;28;20052;-68
2020/12/25 16:37:31;;;;;;;0.30;0.30;;;;;;;;;;10405581;28;20136;-68
2020/12/25 16:42:33;;;;;;;0.40;0.40;;;3.40;94.50;;;;;;10406548;28;20046;-68
2020/12/25 16:47:35;;;;;;;5.20;1.88;;;3.50;95.20;;;;;;10400370;28;20196;-69
2020/12/25 16:52:36;;;;;;;0.88;0.88;;;3.50;95.30;;;;;;10407303;28;20061;-69
2020/12/25 16:57:38;;;;;;;0.30;0.30;;;3.50;95.00;;;;;;10406838;28;20057;-68
2020/12/25 17:02:40;;;;;;;0.40;0.40;;;3.40;94.80;;;;;;10406617;28;21151;-68
2020/12/25 17:07:44;;;;;;;0.40;0.40;;;3.30;94.70;;;;;;10407489;28;20076;-68
2020/12/25 17:12:46;;;;;;;0.20;0.20;;;3.20;94.90;;;;;;10407486;28;20825;-68
2020/12/25 17:17:48;;;;;;;0.30;0.30;;;3.40;96.10;;;;;;10408481;28;20558;-69
2020/12/25 17:22:51;;;;;;;1.23;1.15;;;3.70;96.20;;;;;;10407120;28;20513;-69
2020/12/25 17:27:54;;;;;;;0.65;0.63;;;3.70;95.50;;;;;;10407043;28;20041;-69
2020/12/25 17:32:56;;;;;;;0.40;0.40;;;3.60;94.90;;;;;;10406950;28;20102;-69
2020/12/25 17:37:57;;;;;;;0.75;0.75;;;3.40;94.50;;;;;;10409074;28;20049;-68
2020/12/25 17:42:59;;;;;;;0.30;0.30;;;3.30;94.70;;;;;;10401065;28;20547;-68
2020/12/25 17:48:04;;;;;;;0.90;0.90;;;3.20;94.60;;;;;;10391280;28;20400;-67
2020/12/25 17:53:05;;;;;;;0.90;0.90;;;3.20;94.70;;;;;;10406798;28;20124;-70
2020/12/25 17:58:06;;;;;;;0.30;0.30;;;3.20;94.80;;;;;;10403459;28;20071;-66
2020/12/25 18:03:13;;;;;;;0.30;0.30;;;3.30;95.00;;;;;;10403988;28;20128;-68
2020/12/25 18:08:15;;;;;;;0.30;0.30;;;3.40;95.10;;;;;;10403847;28;20092;-69
2020/12/25 18:13:19;;;;;;;2.27;2.13;;;3.40;95.30;;;;;;10396404;28;20049;-71
2020/12/25 18:18:21;;;;;;;0.50;0.50;;;3.60;95.70;;;;;;10400043;28;20107;-69
2020/12/25 18:23:23;;;;;;;0.50;0.50;;;3.70;95.40;;;;;;10405886;28;20056;-65
2020/12/25 18:28:24;;;;;;;0.45;0.45;;;3.90;95.60;;;;;;10404584;28;20528;-68
2020/12/25 18:33:27;;;;;;;1.60;1.58;;;3.90;94.50;;;;;;10403804;28;20056;-66
2020/12/25 18:38:28;;;;;;;0.60;0.60;;;3.70;93.40;;;;;;10402872;28;20053;-69
2020/12/25 18:43:30;;;;;;;0.30;0.30;;;3.40;93.00;;;;;;10403857;28;20051;-66
2020/12/25 18:48:32;;;;;;;0.35;0.35;;;3.30;93.70;;;;;;10406155;28;20136;-65
2020/12/25 18:53:33;;;;;;;0.30;0.30;;;3.40;94.50;;;;;;10402620;28;20042;-66
2020/12/25 18:58:35;;;;;;;0.38;0.38;;;3.80;95.20;;;;;;10402370;28;20543;-68
2020/12/25 19:03:38;;;;;;;0.30;0.30;;;3.80;94.60;;;;;;10393180;28;20057;-68
2020/12/25 19:08:39;;;;;;;0.40;0.40;;;3.40;93.50;;;;;;10404894;28;20049;-68
2020/12/25 19:13:41;;;;;;;0.30;0.30;;;2.80;92.70;;;;;;10403574;28;20136;-66
2020/12/25 19:18:43;;;;;;;0.85;0.85;;;2.40;92.50;;;;;;10402292;28;20061;-72
2020/12/25 19:23:46;;;;;;;0.93;0.93;;;2.00;92.70;;;;;;10403513;28;20050;-75
2020/12/25 19:28:49;;;;;;;0.93;0.93;;;1.80;93.20;;;;;;10402413;28;20449;-72
2020/12/25 19:33:51;;;;;;;0.80;0.80;;;1.60;93.40;;;;;;10401827;28;20114;-71
2020/12/25 19:38:52;;;;;;;0.30;0.30;;;1.50;93.60;;;;;;10404679;28;20146;-72
2020/12/25 19:43:54;;;;;;;5.10;1.43;;;1.50;94.10;;;;;;10402509;28;20069;-71
2020/12/25 19:48:56;;;;;;;0.40;0.40;;;1.60;95.00;;;;;;10402226;28;20051;-72
2020/12/25 19:53:58;;;;;;;0.40;0.40;;;1.90;95.50;;;;;;10404142;28;20057;-72
2020/12/25 19:58:59;;;;;;;0.47;0.47;;;2.10;95.80;;;;;;10407672;28;20051;-70
2020/12/25 20:04:04;;;;;;;0.40;0.40;;;2.20;95.80;;;;;;10398220;28;20228;-72
2020/12/25 20:09:08;;;;;;;0.30;0.30;;;2.10;95.50;;;;;;10406097;28;20056;-72
2020/12/25 20:14:11;;;;;;;1.80;1.27;;;1.90;94.90;;;;;;10408938;28;20578;-72
2020/12/25 20:19:13;;;;;;;0.50;0.50;;;2.10;95.50;;;;;;10405689;28;20056;-73
2020/12/25 20:24:15;;;;;;;0.40;0.40;;;2.10;95.60;;;;;;10408912;28;20184;-71
2020/12/25 20:29:16;;;;;;;0.30;0.30;;;2.20;95.60;;;;;;10404556;28;20080;-72
2020/12/25 20:34:18;;;;;;;0.30;0.30;;;2.30;95.70;;;;;;10406346;28;20049;-71
2020/12/25 20:39:20;;;;;;;0.50;0.50;;;2.20;95.40;;;;;;10405052;28;20556;-72
2020/12/25 20:44:21;;;;;;;0.40;0.40;;;2.10;95.30;;;;;;10408219;28;20191;-72
2020/12/25 20:49:23;;;;;;;0.35;0.35;;;2.10;95.80;;;;;;10405227;28;20053;-72
2020/12/25 20:54:25;;;;;;;0.40;0.40;;;2.60;97.10;;;;;;10405495;28;20052;-70
2020/12/25 20:59:26;;;;;;;0.47;0.47;;;2.70;96.50;;;;;;10403278;28;20061;-72
2020/12/25 21:04:28;;;;;;;0.30;0.30;;;2.50;95.80;;;;;;10405792;28;20049;-71
2020/12/25 21:09:29;;;;;;;0.50;0.50;;;2.50;96.10;;;;;;10405311;28;20058;-72
2020/12/25 21:14:31;;;;;;;0.30;0.30;;;2.60;96.60;;;;;;10403716;28;20046;-72
2020/12/25 21:19:33;;;;;;;0.30;0.30;;;2.90;97.20;;;;;;10404175;28;20547;-72
2020/12/25 21:24:34;;;;;;;0.40;0.40;;;3.10;97.50;;;;;;10401582;28;20037;-72
2020/12/25 21:29:36;;;;;;;0.30;0.30;;;3.40;97.70;;;;;;10403009;28;20132;-72
2020/12/25 21:34:38;;;;;;;0.40;0.40;;;3.60;98.00;;;;;;10402524;28;20053;-69
2020/12/25 21:39:39;;;;;;;0.30;0.30;;;3.80;98.10;;;;;;10402528;28;20099;-68
2020/12/25 21:44:41;;;;;;;0.40;0.40;;;4.00;98.10;;;;;;10402955;28;20128;-68
2020/12/25 21:49:43;;;;;;;0.25;0.25;;;4.20;98.30;;;;;;10400104;28;20049;-68
2020/12/25 21:54:44;;;;;;;0.30;0.30;;;4.30;99.00;;;;;;10402288;28;20051;-68
2020/12/25 21:59:45;;;;;;;0.30;0.30;;;4.20;98.30;;;;;;10403228;28;20150;-69
2020/12/25 22:04:47;;;;;;;0.30;0.30;;;4.10;98.10;;;;;;10405825;28;20490;-69
2020/12/25 22:09:50;;;;;;;0.30;0.30;;;4.00;98.00;;;;;;10400797;28;20049;-68
2020/12/25 22:14:51;;;;;;;0.30;0.30;;;4.00;98.30;;;;;;10397454;28;20145;-68
2020/12/25 22:19:53;;;;;;;0.30;0.30;;;4.10;98.20;;;;;;10401997;28;20049;-68
2020/12/25 22:24:54;;;;;;;0.60;0.60;;;4.20;99.10;;;;;;10404418;28;20044;-69
2020/12/25 22:29:55;;;;;;;0.30;0.30;;;4.30;98.50;;;;;;10404292;28;20133;-68
2020/12/25 22:34:58;;;;;;;0.20;0.20;;;;;;;;;;10405765;28;20061;-68
2020/12/25 22:39:59;;;;;;;0.20;0.20;;;4.50;99.90;;;;;;10401644;28;20096;-68
2020/12/25 22:45:00;;;;;;;0.20;0.20;;;4.20;98.20;;;;;;10385054;28;20053;-68
2020/12/25 22:50:03;;;;;;;0.30;0.30;;;4.30;98.40;;;;;;10395633;28;20041;-69
2020/12/25 22:55:06;;;;;;;0.80;0.80;;;4.20;98.40;;;;;;10403717;28;20141;-68
2020/12/25 23:00:09;;;;;;;0.30;0.30;;;4.20;98.40;;;;;;10401215;28;20059;-68
2020/12/25 23:05:11;;;;;;;0.30;0.30;;;4.30;98.60;;;;;;10401916;28;20041;-67
2020/12/25 23:10:13;;;;;;;0.30;0.30;;;4.40;98.70;;;;;;10396177;28;20836;-67
2020/12/25 23:15:14;;;;;;;0.30;0.30;;;4.50;98.80;;;;;;10400453;28;20105;-68
2020/12/25 23:20:17;;;;;;;0.20;0.20;;;4.50;98.80;;;;;;10398458;28;20059;-68
2020/12/25 23:25:19;;;;;;;0.20;0.20;;;4.50;98.90;;;;;;10407616;28;20081;-68
2020/12/25 23:30:20;;;;;;;0.20;0.20;;;4.60;98.90;;;;;;10406902;28;20132;-68
2020/12/25 23:35:22;;;;;;;0.30;0.30;;;;;;;;;;10406163;28;20049;-68
2020/12/25 23:40:25;;;;;;;0.37;0.37;;;;;;;;;;10409143;28;20126;-68
2020/12/25 23:45:26;;;;;;;0.20;0.20;;;;;;;;;;10407562;28;20534;-68
2020/12/25 23:50:29;;;;;;;0.30;0.30;;;;;;;;;;10410357;28;20098;-68
2020/12/25 23:55:30;;;;;;;0.20;0.20;;;;;;;;;;10406731;28;20477;-69
